sensor_id;sensor_type;location;lat;lon;timestamp;temperature;humidity
18207;DHT22;9229;52.354;20.886;2022-11-25T00:02:14;0.20;99.90
18207;DHT22;9229;52.354;20.886;2022-11-25T00:07:17;0.20;99.90
18207;DHT22;9229;52.354;20.886;2022-11-25T00:12:19;0.30;99.90
18207;DHT22;9229;52.354;20.886;2022-11-25T00:17:22;0.30;99.90
18207;DHT22;9229;52.354;20.886;2022-11-25T00:22:26;0.30;99.90
18207;DHT22;9229;52.354;20.886;2022-11-25T00:27:28;0.30;99.90
18207;DHT22;9229;52.354;20.886;2022-11-25T00:32:33;0.40;99.90
18207;DHT22;9229;52.354;20.886;2022-11-25T00:37:36;0.40;99.90
18207;DHT22;9229;52.354;20.886;2022-11-25T00:42:38;0.40;99.90
18207;DHT22;9229;52.354;20.886;2022-11-25T00:47:57;0.30;99.90
18207;DHT22;9229;52.354;20.886;2022-11-25T00:53:00;0.40;99.90
18207;DHT22;9229;52.354;20.886;2022-11-25T00:58:02;0.40;99.90
18207;DHT22;9229;52.354;20.886;2022-11-25T01:03:04;0.50;99.90
18207;DHT22;9229;52.354;20.886;2022-11-25T01:08:08;0.50;99.90
18207;DHT22;9229;52.354;20.886;2022-11-25T01:13:13;0.50;99.90
18207;DHT22;9229;52.354;20.886;2022-11-25T01:18:15;0.50;99.90
18207;DHT22;9229;52.354;20.886;2022-11-25T01:23:20;0.50;99.90
18207;DHT22;9229;52.354;20.886;2022-11-25T01:28:22;0.50;99.90
18207;DHT22;9229;52.354;20.886;2022-11-25T01:33:26;0.50;99.90
18207;DHT22;9229;52.354;20.886;2022-11-25T01:38:30;0.60;99.90
18207;DHT22;9229;52.354;20.886;2022-11-25T01:43:33;0.60;99.90
18207;DHT22;9229;52.354;20.886;2022-11-25T01:48:40;0.60;99.90
18207;DHT22;9229;52.354;20.886;2022-11-25T01:53:45;0.70;99.90
18207;DHT22;9229;52.354;20.886;2022-11-25T01:58:48;0.60;99.90
18207;DHT22;9229;52.354;20.886;2022-11-25T02:03:52;0.60;99.90
18207;DHT22;9229;52.354;20.886;2022-11-25T02:09:00;0.60;99.90
18207;DHT22;9229;52.354;20.886;2022-11-25T02:14:04;0.60;99.90
18207;DHT22;9229;52.354;20.886;2022-11-25T02:19:12;0.60;99.90
18207;DHT22;9229;52.354;20.886;2022-11-25T02:24:24;0.50;99.90
18207;DHT22;9229;52.354;20.886;2022-11-25T02:29:31;0.40;99.90
18207;DHT22;9229;52.354;20.886;2022-11-25T02:34:33;0.40;99.90
18207;DHT22;9229;52.354;20.886;2022-11-25T02:39:35;0.30;99.90
18207;DHT22;9229;52.354;20.886;2022-11-25T02:44:39;0.30;99.90
18207;DHT22;9229;52.354;20.886;2022-11-25T02:49:42;0.30;99.90
18207;DHT22;9229;52.354;20.886;2022-11-25T02:54:44;0.40;99.90
18207;DHT22;9229;52.354;20.886;2022-11-25T02:59:50;0.40;99.90
18207;DHT22;9229;52.354;20.886;2022-11-25T03:04:52;0.40;99.90
18207;DHT22;9229;52.354;20.886;2022-11-25T03:09:54;0.50;99.90
18207;DHT22;9229;52.354;20.886;2022-11-25T03:14:58;0.50;99.90
18207;DHT22;9229;52.354;20.886;2022-11-25T03:20:00;0.50;99.90
18207;DHT22;9229;52.354;20.886;2022-11-25T03:25:02;0.50;99.90
18207;DHT22;9229;52.354;20.886;2022-11-25T03:30:08;0.50;99.90
18207;DHT22;9229;52.354;20.886;2022-11-25T03:35:12;0.50;99.90
18207;DHT22;9229;52.354;20.886;2022-11-25T03:40:15;0.50;99.90
18207;DHT22;9229;52.354;20.886;2022-11-25T03:45:20;0.50;99.90
18207;DHT22;9229;52.354;20.886;2022-11-25T03:50:22;0.50;99.90
18207;DHT22;9229;52.354;20.886;2022-11-25T03:55:24;0.50;99.90
18207;DHT22;9229;52.354;20.886;2022-11-25T04:00:30;0.50;99.90
18207;DHT22;9229;52.354;20.886;2022-11-25T04:05:37;0.50;99.90
18207;DHT22;9229;52.354;20.886;2022-11-25T04:10:41;0.50;99.90
18207;DHT22;9229;52.354;20.886;2022-11-25T04:15:48;0.50;99.90
18207;DHT22;9229;52.354;20.886;2022-11-25T04:20:51;0.50;99.90
18207;DHT22;9229;52.354;20.886;2022-11-25T04:25:55;0.50;99.90
18207;DHT22;9229;52.354;20.886;2022-11-25T04:31:06;0.50;99.90
18207;DHT22;9229;52.354;20.886;2022-11-25T04:36:11;0.50;99.90
18207;DHT22;9229;52.354;20.886;2022-11-25T04:41:13;0.50;99.90
18207;DHT22;9229;52.354;20.886;2022-11-25T04:46:22;0.50;99.90
18207;DHT22;9229;52.354;20.886;2022-11-25T04:51:25;0.50;99.90
18207;DHT22;9229;52.354;20.886;2022-11-25T04:56:32;0.40;99.90
18207;DHT22;9229;52.354;20.886;2022-11-25T05:01:36;0.40;99.90
18207;DHT22;9229;52.354;20.886;2022-11-25T05:06:51;0.40;99.90
18207;DHT22;9229;52.354;20.886;2022-11-25T05:11:54;0.40;99.90
18207;DHT22;9229;52.354;20.886;2022-11-25T05:16:58;0.40;99.90
18207;DHT22;9229;52.354;20.886;2022-11-25T05:22:00;0.50;99.90
18207;DHT22;9229;52.354;20.886;2022-11-25T05:27:03;0.50;99.90
18207;DHT22;9229;52.354;20.886;2022-11-25T05:32:07;0.50;99.90
18207;DHT22;9229;52.354;20.886;2022-11-25T05:37:12;0.50;99.90
18207;DHT22;9229;52.354;20.886;2022-11-25T05:42:22;0.60;99.90
18207;DHT22;9229;52.354;20.886;2022-11-25T05:47:28;0.50;99.90
18207;DHT22;9229;52.354;20.886;2022-11-25T05:52:31;0.50;99.90
18207;DHT22;9229;52.354;20.886;2022-11-25T05:57:35;0.50;99.90
18207;DHT22;9229;52.354;20.886;2022-11-25T06:02:42;0.60;99.90
18207;DHT22;9229;52.354;20.886;2022-11-25T06:07:47;0.60;99.90
18207;DHT22;9229;52.354;20.886;2022-11-25T06:12:50;0.60;99.90
18207;DHT22;9229;52.354;20.886;2022-11-25T06:17:54;0.70;99.90
18207;DHT22;9229;52.354;20.886;2022-11-25T06:22:59;0.70;99.90
18207;DHT22;9229;52.354;20.886;2022-11-25T06:28:06;0.70;99.90
18207;DHT22;9229;52.354;20.886;2022-11-25T06:33:10;0.70;99.90
18207;DHT22;9229;52.354;20.886;2022-11-25T06:38:14;0.70;99.90
18207;DHT22;9229;52.354;20.886;2022-11-25T06:43:16;0.70;99.90
18207;DHT22;9229;52.354;20.886;2022-11-25T06:48:19;0.70;99.90
18207;DHT22;9229;52.354;20.886;2022-11-25T06:53:21;0.70;99.90
18207;DHT22;9229;52.354;20.886;2022-11-25T06:58:23;0.70;99.90
18207;DHT22;9229;52.354;20.886;2022-11-25T07:03:27;0.70;99.90
18207;DHT22;9229;52.354;20.886;2022-11-25T07:08:29;0.80;99.90
18207;DHT22;9229;52.354;20.886;2022-11-25T07:13:32;0.70;99.90
18207;DHT22;9229;52.354;20.886;2022-11-25T07:18:37;0.80;99.90
18207;DHT22;9229;52.354;20.886;2022-11-25T07:23:40;0.80;99.90
18207;DHT22;9229;52.354;20.886;2022-11-25T07:28:42;0.80;99.90
18207;DHT22;9229;52.354;20.886;2022-11-25T07:33:46;0.80;99.90
18207;DHT22;9229;52.354;20.886;2022-11-25T07:38:49;0.80;99.90
18207;DHT22;9229;52.354;20.886;2022-11-25T07:43:52;0.80;99.90
18207;DHT22;9229;52.354;20.886;2022-11-25T07:49:00;0.80;99.90
18207;DHT22;9229;52.354;20.886;2022-11-25T07:54:04;0.80;99.90
18207;DHT22;9229;52.354;20.886;2022-11-25T07:59:09;0.80;99.90
18207;DHT22;9229;52.354;20.886;2022-11-25T08:04:14;0.80;99.90
18207;DHT22;9229;52.354;20.886;2022-11-25T08:09:18;0.80;99.90
18207;DHT22;9229;52.354;20.886;2022-11-25T08:14:20;0.80;99.90
18207;DHT22;9229;52.354;20.886;2022-11-25T08:19:23;0.90;99.90
18207;DHT22;9229;52.354;20.886;2022-11-25T08:24:25;0.90;99.90
18207;DHT22;9229;52.354;20.886;2022-11-25T08:29:27;0.90;99.90
18207;DHT22;9229;52.354;20.886;2022-11-25T08:34:31;0.90;99.90
18207;DHT22;9229;52.354;20.886;2022-11-25T08:39:36;1.00;99.90
18207;DHT22;9229;52.354;20.886;2022-11-25T08:44:38;0.90;99.90
18207;DHT22;9229;52.354;20.886;2022-11-25T08:49:42;0.90;99.90
18207;DHT22;9229;52.354;20.886;2022-11-25T08:54:44;0.90;99.90
18207;DHT22;9229;52.354;20.886;2022-11-25T08:59:46;0.90;99.90
18207;DHT22;9229;52.354;20.886;2022-11-25T09:04:49;0.90;99.90
18207;DHT22;9229;52.354;20.886;2022-11-25T09:09:51;0.90;99.90
18207;DHT22;9229;52.354;20.886;2022-11-25T09:14:53;0.90;99.90
18207;DHT22;9229;52.354;20.886;2022-11-25T09:19:58;0.80;99.90
18207;DHT22;9229;52.354;20.886;2022-11-25T09:24:59;0.80;99.90
18207;DHT22;9229;52.354;20.886;2022-11-25T09:30:02;0.90;99.90
18207;DHT22;9229;52.354;20.886;2022-11-25T09:35:06;0.90;99.90
18207;DHT22;9229;52.354;20.886;2022-11-25T09:40:16;1.00;99.90
18207;DHT22;9229;52.354;20.886;2022-11-25T09:45:21;1.00;99.90
18207;DHT22;9229;52.354;20.886;2022-11-25T09:50:54;1.00;99.90
18207;DHT22;9229;52.354;20.886;2022-11-25T09:56:02;1.00;99.90
18207;DHT22;9229;52.354;20.886;2022-11-25T10:01:06;1.00;99.90
18207;DHT22;9229;52.354;20.886;2022-11-25T10:06:16;1.00;99.90
18207;DHT22;9229;52.354;20.886;2022-11-25T10:11:27;1.10;99.90
18207;DHT22;9229;52.354;20.886;2022-11-25T10:16:39;1.00;99.90
18207;DHT22;9229;52.354;20.886;2022-11-25T10:21:44;1.00;99.90
18207;DHT22;9229;52.354;20.886;2022-11-25T10:26:52;1.00;99.90
18207;DHT22;9229;52.354;20.886;2022-11-25T10:32:17;1.00;99.90
18207;DHT22;9229;52.354;20.886;2022-11-25T10:37:26;1.00;99.90
18207;DHT22;9229;52.354;20.886;2022-11-25T10:42:29;1.10;99.90
18207;DHT22;9229;52.354;20.886;2022-11-25T10:47:35;1.10;99.90
18207;DHT22;9229;52.354;20.886;2022-11-25T10:52:41;1.10;99.90
18207;DHT22;9229;52.354;20.886;2022-11-25T10:57:44;1.10;99.90
18207;DHT22;9229;52.354;20.886;2022-11-25T11:02:46;1.20;99.90
18207;DHT22;9229;52.354;20.886;2022-11-25T11:08:17;1.20;99.90
18207;DHT22;9229;52.354;20.886;2022-11-25T11:13:23;1.20;99.90
18207;DHT22;9229;52.354;20.886;2022-11-25T11:18:28;1.40;99.90
18207;DHT22;9229;52.354;20.886;2022-11-25T11:23:47;1.20;99.90
18207;DHT22;9229;52.354;20.886;2022-11-25T11:29:01;1.30;99.90
18207;DHT22;9229;52.354;20.886;2022-11-25T11:34:19;1.30;99.90
18207;DHT22;9229;52.354;20.886;2022-11-25T11:39:42;1.30;99.90
18207;DHT22;9229;52.354;20.886;2022-11-25T11:45:00;1.30;99.90
18207;DHT22;9229;52.354;20.886;2022-11-25T11:50:24;1.40;99.90
18207;DHT22;9229;52.354;20.886;2022-11-25T11:55:46;1.40;99.90
18207;DHT22;9229;52.354;20.886;2022-11-25T12:00:58;1.40;99.90
18207;DHT22;9229;52.354;20.886;2022-11-25T12:06:05;1.40;99.90
18207;DHT22;9229;52.354;20.886;2022-11-25T12:11:12;1.40;99.90
18207;DHT22;9229;52.354;20.886;2022-11-25T12:16:20;1.50;99.90
18207;DHT22;9229;52.354;20.886;2022-11-25T12:21:35;1.50;99.90
18207;DHT22;9229;52.354;20.886;2022-11-25T12:26:45;1.50;99.90
18207;DHT22;9229;52.354;20.886;2022-11-25T12:31:55;1.50;99.90
18207;DHT22;9229;52.354;20.886;2022-11-25T12:37:04;1.50;99.90
18207;DHT22;9229;52.354;20.886;2022-11-25T12:42:13;1.60;99.90
18207;DHT22;9229;52.354;20.886;2022-11-25T12:47:16;1.60;99.90
18207;DHT22;9229;52.354;20.886;2022-11-25T12:52:37;1.60;99.90
18207;DHT22;9229;52.354;20.886;2022-11-25T12:58:08;1.60;99.90
18207;DHT22;9229;52.354;20.886;2022-11-25T13:03:38;1.50;99.90
18207;DHT22;9229;52.354;20.886;2022-11-25T13:08:55;1.50;99.90
18207;DHT22;9229;52.354;20.886;2022-11-25T13:14:00;1.60;99.90
18207;DHT22;9229;52.354;20.886;2022-11-25T13:44:04;1.50;99.90
18207;DHT22;9229;52.354;20.886;2022-11-25T13:49:32;1.70;99.90
18207;DHT22;9229;52.354;20.886;2022-11-25T13:54:39;1.70;99.90
18207;DHT22;9229;52.354;20.886;2022-11-25T13:59:53;1.70;99.90
18207;DHT22;9229;52.354;20.886;2022-11-25T14:05:11;1.70;99.90
18207;DHT22;9229;52.354;20.886;2022-11-25T14:10:30;1.60;99.90
18207;DHT22;9229;52.354;20.886;2022-11-25T14:15:50;1.60;99.90
18207;DHT22;9229;52.354;20.886;2022-11-25T14:21:05;1.60;99.90
18207;DHT22;9229;52.354;20.886;2022-11-25T14:26:25;1.70;99.90
18207;DHT22;9229;52.354;20.886;2022-11-25T14:31:35;1.70;99.90
18207;DHT22;9229;52.354;20.886;2022-11-25T14:36:40;1.70;99.90
18207;DHT22;9229;52.354;20.886;2022-11-25T14:41:51;1.70;99.90
18207;DHT22;9229;52.354;20.886;2022-11-25T14:47:02;1.70;99.90
18207;DHT22;9229;52.354;20.886;2022-11-25T14:52:06;1.70;99.90
18207;DHT22;9229;52.354;20.886;2022-11-25T14:57:11;1.70;99.90
18207;DHT22;9229;52.354;20.886;2022-11-25T15:02:24;1.70;99.90
18207;DHT22;9229;52.354;20.886;2022-11-25T15:07:26;1.70;99.90
18207;DHT22;9229;52.354;20.886;2022-11-25T15:12:31;1.70;99.90
18207;DHT22;9229;52.354;20.886;2022-11-25T15:17:35;1.70;99.90
18207;DHT22;9229;52.354;20.886;2022-11-25T15:22:37;1.70;99.90
18207;DHT22;9229;52.354;20.886;2022-11-25T15:27:43;1.80;99.90
18207;DHT22;9229;52.354;20.886;2022-11-25T15:32:47;1.80;99.90
18207;DHT22;9229;52.354;20.886;2022-11-25T15:37:50;1.80;99.90
18207;DHT22;9229;52.354;20.886;2022-11-25T15:42:54;1.70;99.90
18207;DHT22;9229;52.354;20.886;2022-11-25T15:47:58;1.80;99.90
18207;DHT22;9229;52.354;20.886;2022-11-25T15:53:00;1.70;99.90
18207;DHT22;9229;52.354;20.886;2022-11-25T15:58:09;1.70;99.90
18207;DHT22;9229;52.354;20.886;2022-11-25T16:03:20;1.70;99.90
18207;DHT22;9229;52.354;20.886;2022-11-25T16:08:30;1.70;99.90
18207;DHT22;9229;52.354;20.886;2022-11-25T16:13:35;1.70;99.90
18207;DHT22;9229;52.354;20.886;2022-11-25T16:24:12;1.70;99.90
18207;DHT22;9229;52.354;20.886;2022-11-25T16:29:19;1.70;99.90
18207;DHT22;9229;52.354;20.886;2022-11-25T16:34:32;1.70;99.90
18207;DHT22;9229;52.354;20.886;2022-11-25T16:39:35;1.70;99.90
18207;DHT22;9229;52.354;20.886;2022-11-25T16:44:37;1.70;99.90
18207;DHT22;9229;52.354;20.886;2022-11-25T16:49:45;1.80;99.90
18207;DHT22;9229;52.354;20.886;2022-11-25T16:54:49;1.70;99.90
18207;DHT22;9229;52.354;20.886;2022-11-25T16:59:51;1.70;99.90
18207;DHT22;9229;52.354;20.886;2022-11-25T17:05:12;1.70;99.90
18207;DHT22;9229;52.354;20.886;2022-11-25T17:10:16;1.80;99.90
18207;DHT22;9229;52.354;20.886;2022-11-25T17:15:22;1.70;99.90
18207;DHT22;9229;52.354;20.886;2022-11-25T17:20:27;1.80;99.90
18207;DHT22;9229;52.354;20.886;2022-11-25T17:25:29;1.70;99.90
18207;DHT22;9229;52.354;20.886;2022-11-25T17:30:31;1.80;99.90
18207;DHT22;9229;52.354;20.886;2022-11-25T17:35:35;1.80;99.90
18207;DHT22;9229;52.354;20.886;2022-11-25T17:40:50;1.80;99.90
18207;DHT22;9229;52.354;20.886;2022-11-25T17:45:55;1.80;99.90
18207;DHT22;9229;52.354;20.886;2022-11-25T17:50:59;1.90;99.90
18207;DHT22;9229;52.354;20.886;2022-11-25T17:56:04;1.80;99.90
18207;DHT22;9229;52.354;20.886;2022-11-25T18:01:17;1.70;99.90
18207;DHT22;9229;52.354;20.886;2022-11-25T18:06:27;1.80;99.90
18207;DHT22;9229;52.354;20.886;2022-11-25T18:11:29;1.80;99.90
18207;DHT22;9229;52.354;20.886;2022-11-25T18:16:31;1.90;99.90
18207;DHT22;9229;52.354;20.886;2022-11-25T18:21:39;1.80;99.90
18207;DHT22;9229;52.354;20.886;2022-11-25T18:26:45;1.80;99.90
18207;DHT22;9229;52.354;20.886;2022-11-25T18:31:48;1.80;99.90
18207;DHT22;9229;52.354;20.886;2022-11-25T18:36:54;1.80;99.90
18207;DHT22;9229;52.354;20.886;2022-11-25T18:41:56;1.90;99.90
18207;DHT22;9229;52.354;20.886;2022-11-25T18:46:59;1.90;99.90
18207;DHT22;9229;52.354;20.886;2022-11-25T18:52:03;1.90;99.90
18207;DHT22;9229;52.354;20.886;2022-11-25T18:57:05;2.00;99.90
18207;DHT22;9229;52.354;20.886;2022-11-25T19:02:11;1.90;99.90
18207;DHT22;9229;52.354;20.886;2022-11-25T19:07:17;1.90;99.90
18207;DHT22;9229;52.354;20.886;2022-11-25T19:12:19;1.90;99.90
18207;DHT22;9229;52.354;20.886;2022-11-25T19:17:21;1.90;99.90
18207;DHT22;9229;52.354;20.886;2022-11-25T19:22:27;1.90;99.90
18207;DHT22;9229;52.354;20.886;2022-11-25T19:27:31;1.90;99.90
18207;DHT22;9229;52.354;20.886;2022-11-25T19:32:35;1.90;99.90
18207;DHT22;9229;52.354;20.886;2022-11-25T19:37:39;1.90;99.90
18207;DHT22;9229;52.354;20.886;2022-11-25T19:42:41;1.90;99.90
18207;DHT22;9229;52.354;20.886;2022-11-25T19:47:47;1.90;99.90
18207;DHT22;9229;52.354;20.886;2022-11-25T19:52:52;2.00;99.90
18207;DHT22;9229;52.354;20.886;2022-11-25T19:57:54;2.00;99.90
18207;DHT22;9229;52.354;20.886;2022-11-25T20:02:56;2.00;99.90
18207;DHT22;9229;52.354;20.886;2022-11-25T20:07:59;2.00;99.90
18207;DHT22;9229;52.354;20.886;2022-11-25T20:13:01;2.00;99.90
18207;DHT22;9229;52.354;20.886;2022-11-25T20:18:15;2.10;99.90
18207;DHT22;9229;52.354;20.886;2022-11-25T20:23:23;2.00;99.90
18207;DHT22;9229;52.354;20.886;2022-11-25T20:28:27;2.00;99.90
18207;DHT22;9229;52.354;20.886;2022-11-25T20:33:30;2.00;99.90
18207;DHT22;9229;52.354;20.886;2022-11-25T20:38:35;2.00;99.90
18207;DHT22;9229;52.354;20.886;2022-11-25T20:43:39;1.90;99.90
18207;DHT22;9229;52.354;20.886;2022-11-25T20:48:43;2.00;99.90
18207;DHT22;9229;52.354;20.886;2022-11-25T20:53:49;2.00;99.90
18207;DHT22;9229;52.354;20.886;2022-11-25T20:58:53;2.00;99.90
18207;DHT22;9229;52.354;20.886;2022-11-25T21:03:55;2.00;99.90
18207;DHT22;9229;52.354;20.886;2022-11-25T21:09:23;2.00;99.90
18207;DHT22;9229;52.354;20.886;2022-11-25T21:14:28;2.00;99.90
18207;DHT22;9229;52.354;20.886;2022-11-25T21:19:31;2.00;99.90
18207;DHT22;9229;52.354;20.886;2022-11-25T21:24:40;2.00;99.90
18207;DHT22;9229;52.354;20.886;2022-11-25T21:29:59;2.00;99.90
18207;DHT22;9229;52.354;20.886;2022-11-25T21:35:12;2.10;99.90
18207;DHT22;9229;52.354;20.886;2022-11-25T21:40:30;2.00;99.90
18207;DHT22;9229;52.354;20.886;2022-11-25T21:45:33;2.00;99.90
18207;DHT22;9229;52.354;20.886;2022-11-25T21:50:35;2.00;99.90
18207;DHT22;9229;52.354;20.886;2022-11-25T21:55:39;2.00;99.90
18207;DHT22;9229;52.354;20.886;2022-11-25T22:00:41;2.00;99.90
18207;DHT22;9229;52.354;20.886;2022-11-25T22:05:44;2.00;99.90
18207;DHT22;9229;52.354;20.886;2022-11-25T22:10:50;2.00;99.90
18207;DHT22;9229;52.354;20.886;2022-11-25T22:15:56;2.00;99.90
18207;DHT22;9229;52.354;20.886;2022-11-25T22:21:00;2.00;99.90
18207;DHT22;9229;52.354;20.886;2022-11-25T22:26:04;2.00;99.90
18207;DHT22;9229;52.354;20.886;2022-11-25T22:31:09;2.00;99.90
18207;DHT22;9229;52.354;20.886;2022-11-25T22:36:23;2.00;99.90
18207;DHT22;9229;52.354;20.886;2022-11-25T22:41:30;2.00;99.90
18207;DHT22;9229;52.354;20.886;2022-11-25T22:46:35;2.10;99.90
18207;DHT22;9229;52.354;20.886;2022-11-25T22:51:39;2.10;99.90
18207;DHT22;9229;52.354;20.886;2022-11-25T22:56:42;2.10;99.90
18207;DHT22;9229;52.354;20.886;2022-11-25T23:01:44;2.10;99.90
18207;DHT22;9229;52.354;20.886;2022-11-25T23:06:46;2.20;99.90
18207;DHT22;9229;52.354;20.886;2022-11-25T23:11:50;2.10;99.90
18207;DHT22;9229;52.354;20.886;2022-11-25T23:16:52;2.10;99.90
18207;DHT22;9229;52.354;20.886;2022-11-25T23:21:54;2.10;99.90
18207;DHT22;9229;52.354;20.886;2022-11-25T23:26:57;2.10;99.90
18207;DHT22;9229;52.354;20.886;2022-11-25T23:32:02;2.10;99.90
18207;DHT22;9229;52.354;20.886;2022-11-25T23:37:04;2.10;99.90
18207;DHT22;9229;52.354;20.886;2022-11-25T23:42:14;2.10;99.90
18207;DHT22;9229;52.354;20.886;2022-11-25T23:47:18;2.10;99.90
18207;DHT22;9229;52.354;20.886;2022-11-25T23:52:23;2.10;99.90
18207;DHT22;9229;52.354;20.886;2022-11-25T23:57:30;2.10;99.90
